createdAt,value
2023-06-16T00:01:27.323Z,18.21
2023-06-16T00:03:55.014Z,18.20
2023-06-16T00:06:28.877Z,18.21
2023-06-16T00:08:58.642Z,18.21
2023-06-16T00:11:28.855Z,18.21
2023-06-16T00:13:58.071Z,18.22
2023-06-16T00:16:27.444Z,18.20
2023-06-16T00:19:01.053Z,18.22
2023-06-16T00:21:40.067Z,18.22
2023-06-16T00:24:11.082Z,18.22
2023-06-16T00:26:39.262Z,18.18
2023-06-16T00:29:09.065Z,18.17
2023-06-16T00:31:36.950Z,18.16
2023-06-16T00:34:04.574Z,18.13
2023-06-16T00:36:31.820Z,18.07
2023-06-16T00:38:59.107Z,18.05
2023-06-16T00:41:26.385Z,17.98
2023-06-16T00:43:56.657Z,17.95
2023-06-16T00:46:36.077Z,17.96
2023-06-16T00:49:04.238Z,17.94
2023-06-16T00:51:31.994Z,17.91
2023-06-16T00:54:01.356Z,17.84
2023-06-16T00:56:29.468Z,17.85
2023-06-16T00:58:59.577Z,17.80
2023-06-16T01:01:31.962Z,17.76
2023-06-16T01:03:59.875Z,17.71
2023-06-16T01:07:10.729Z,17.67
2023-06-16T01:10:23.667Z,17.61
2023-06-16T01:13:13.073Z,17.56
2023-06-16T01:15:45.539Z,17.53
2023-06-16T01:18:18.994Z,17.47
2023-06-16T01:21:10.961Z,17.44
2023-06-16T01:24:07.362Z,17.40
2023-06-16T01:26:48.007Z,17.32
2023-06-16T01:29:16.245Z,17.27
2023-06-16T01:31:46.227Z,17.20
2023-06-16T01:34:15.553Z,17.12
2023-06-16T01:36:45.418Z,17.05
2023-06-16T01:39:16.049Z,16.96
2023-06-16T01:41:44.900Z,16.87
2023-06-16T01:44:12.769Z,16.80
2023-06-16T01:46:42.657Z,16.73
2023-06-16T01:49:12.976Z,16.63
2023-06-16T01:51:40.730Z,16.60
2023-06-16T01:54:08.120Z,16.60
2023-06-16T01:56:35.613Z,16.57
2023-06-16T01:59:03.303Z,16.55
2023-06-16T02:01:41.404Z,16.51
2023-06-16T02:04:21.742Z,16.48
2023-06-16T02:07:09.902Z,16.41
2023-06-16T02:09:41.179Z,16.38
2023-06-16T02:12:12.685Z,16.37
2023-06-16T02:14:42.176Z,16.34
2023-06-16T02:17:16.498Z,16.31
2023-06-16T02:19:44.473Z,16.29
2023-06-16T02:22:12.103Z,16.27
2023-06-16T02:24:39.665Z,16.23
2023-06-16T02:27:07.345Z,16.23
2023-06-16T02:29:34.588Z,16.19
2023-06-16T02:32:01.905Z,16.17
2023-06-16T02:34:29.221Z,16.14
2023-06-16T02:36:57.659Z,16.14
2023-06-16T02:39:25.562Z,16.12
2023-06-16T02:41:52.908Z,16.11
2023-06-16T02:44:20.395Z,16.10
2023-06-16T02:46:47.745Z,16.08
2023-06-16T02:49:17.263Z,16.05
2023-06-16T02:51:44.945Z,16.03
2023-06-16T02:54:12.825Z,16.02
2023-06-16T02:56:40.055Z,15.99
2023-06-16T02:59:07.342Z,15.92
2023-06-16T03:01:35.019Z,15.97
2023-06-16T03:04:25.562Z,15.91
2023-06-16T03:07:03.694Z,15.89
2023-06-16T03:09:35.102Z,15.87
2023-06-16T03:12:06.193Z,15.86
2023-06-16T03:14:37.240Z,15.81
2023-06-16T03:17:15.028Z,15.77
2023-06-16T03:19:43.450Z,15.71
2023-06-16T03:22:12.369Z,15.69
2023-06-16T03:24:45.468Z,15.66
2023-06-16T03:27:16.508Z,15.62
2023-06-16T03:30:04.464Z,15.56
2023-06-16T03:32:49.133Z,15.56
2023-06-16T03:35:18.937Z,15.54
2023-06-16T03:37:47.422Z,15.54
2023-06-16T03:40:15.719Z,15.52
2023-06-16T03:42:43.104Z,15.50
2023-06-16T03:45:12.666Z,15.47
2023-06-16T03:47:39.979Z,15.46
2023-06-16T03:50:08.135Z,15.48
2023-06-16T03:52:37.153Z,15.46
2023-06-16T03:55:04.922Z,15.48
2023-06-16T03:57:32.414Z,15.49
2023-06-16T04:00:01.325Z,15.47
2023-06-16T04:02:29.082Z,15.44
2023-06-16T04:04:57.764Z,15.47
2023-06-16T04:07:26.373Z,15.46
2023-06-16T04:09:53.771Z,15.48
2023-06-16T04:12:21.613Z,15.45
2023-06-16T04:14:49.352Z,15.43
2023-06-16T04:17:16.666Z,15.47
2023-06-16T04:19:47.279Z,15.46
2023-06-16T04:22:14.808Z,15.43
2023-06-16T04:24:50.553Z,15.44
2023-06-16T04:27:24.057Z,15.41
2023-06-16T04:29:53.450Z,15.48
2023-06-16T04:32:23.841Z,15.47
2023-06-16T04:34:53.578Z,15.51
2023-06-16T04:37:21.966Z,15.51
2023-06-16T04:39:49.449Z,15.52
2023-06-16T04:42:20.644Z,15.54
2023-06-16T04:44:48.551Z,15.59
2023-06-16T04:47:17.049Z,15.63
2023-06-16T04:49:45.434Z,15.65
2023-06-16T04:52:13.216Z,15.72
2023-06-16T04:54:41.553Z,15.77
2023-06-16T04:57:10.669Z,15.82
2023-06-16T04:59:37.983Z,15.87
2023-06-16T05:02:16.933Z,15.95
2023-06-16T05:04:45.062Z,16.02
2023-06-16T05:07:15.171Z,16.11
2023-06-16T05:09:42.751Z,16.14
2023-06-16T05:12:11.229Z,16.19
2023-06-16T05:14:38.593Z,16.28
2023-06-16T05:17:09.433Z,16.35
2023-06-16T05:19:37.849Z,16.46
2023-06-16T05:22:05.739Z,16.49
2023-06-16T05:24:33.718Z,16.56
2023-06-16T05:27:03.236Z,16.63
2023-06-16T05:29:30.586Z,16.74
2023-06-16T05:31:59.268Z,16.88
2023-06-16T05:34:27.443Z,17.05
2023-06-16T05:36:55.054Z,17.15
2023-06-16T05:39:24.736Z,17.29
2023-06-16T05:41:52.972Z,17.44
2023-06-16T05:44:20.572Z,17.55
2023-06-16T05:46:48.530Z,17.68
2023-06-16T05:49:18.284Z,17.75
2023-06-16T05:51:45.979Z,17.83
2023-06-16T05:54:13.273Z,17.87
2023-06-16T05:56:40.672Z,17.94
2023-06-16T05:59:08.049Z,18.02
2023-06-16T06:01:35.611Z,18.04
2023-06-16T06:04:03.893Z,18.15
2023-06-16T06:06:31.714Z,18.22
2023-06-16T06:09:00.200Z,18.29
2023-06-16T06:11:27.674Z,18.38
2023-06-16T06:13:54.941Z,18.45
2023-06-16T06:16:23.321Z,18.56
2023-06-16T06:18:51.396Z,18.73
2023-06-16T06:21:18.737Z,18.88
2023-06-16T06:23:46.268Z,19.00
2023-06-16T06:26:13.637Z,19.12
2023-06-16T06:28:41.050Z,19.24
2023-06-16T06:31:09.405Z,19.33
2023-06-16T06:33:36.806Z,19.40
2023-06-16T06:36:04.838Z,19.48
2023-06-16T06:38:32.323Z,19.56
2023-06-16T06:41:01.692Z,19.62
2023-06-16T06:43:29.361Z,19.68
2023-06-16T06:46:06.926Z,19.81
2023-06-16T06:48:41.285Z,19.89
2023-06-16T06:51:11.823Z,19.97
2023-06-16T06:53:39.280Z,20.10
2023-06-16T06:56:06.715Z,20.16
2023-06-16T06:58:37.062Z,20.31
2023-06-16T07:01:04.327Z,20.37
2023-06-16T07:03:32.564Z,20.47
2023-06-16T07:06:00.944Z,20.53
2023-06-16T07:08:28.261Z,20.58
2023-06-16T07:10:55.788Z,20.66
2023-06-16T07:13:23.118Z,20.78
2023-06-16T07:15:50.673Z,20.83
2023-06-16T07:18:18.001Z,20.90
2023-06-16T07:20:45.479Z,21.02
2023-06-16T07:23:12.840Z,21.13
2023-06-16T07:25:43.076Z,21.18
2023-06-16T07:28:11.166Z,21.26
2023-06-16T07:30:38.538Z,21.35
2023-06-16T07:33:07.398Z,21.40
2023-06-16T07:35:34.731Z,21.42
2023-06-16T07:38:02.059Z,21.51
2023-06-16T07:40:29.382Z,21.57
2023-06-16T07:42:56.689Z,21.64
2023-06-16T07:45:24.149Z,21.74
2023-06-16T07:47:51.517Z,21.87
2023-06-16T07:50:19.117Z,21.99
2023-06-16T07:52:46.811Z,22.11
2023-06-16T07:55:14.140Z,22.12
2023-06-16T07:57:41.595Z,22.25
2023-06-16T08:00:16.208Z,22.38
2023-06-16T08:02:43.926Z,22.59
2023-06-16T08:05:13.351Z,22.83
2023-06-16T08:07:40.729Z,23.27
2023-06-16T08:10:08.609Z,23.79
2023-06-16T08:12:35.878Z,24.31
2023-06-16T08:15:05.837Z,24.75
2023-06-16T08:17:33.864Z,25.21
2023-06-16T08:20:01.406Z,25.75
2023-06-16T08:22:28.752Z,26.21
2023-06-16T08:24:56.678Z,26.63
2023-06-16T08:27:23.957Z,26.91
2023-06-16T08:29:51.482Z,27.43
2023-06-16T08:32:18.843Z,27.52
2023-06-16T08:34:46.146Z,27.80
2023-06-16T08:37:29.050Z,28.04
2023-06-16T08:39:57.580Z,28.27
2023-06-16T08:42:25.390Z,28.44
2023-06-16T08:44:58.699Z,28.70
2023-06-16T08:47:27.899Z,28.95
2023-06-16T08:49:55.976Z,29.08
2023-06-16T08:52:38.768Z,29.14
2023-06-16T08:55:16.725Z,29.48
2023-06-16T08:57:53.736Z,29.58
2023-06-16T09:00:23.115Z,29.68
2023-06-16T09:02:51.944Z,29.83
2023-06-16T09:05:20.319Z,29.88
2023-06-16T09:07:48.720Z,30.03
2023-06-16T09:10:17.929Z,30.21
2023-06-16T09:12:53.580Z,30.38
2023-06-16T09:15:22.384Z,30.59
2023-06-16T09:17:51.026Z,30.78
2023-06-16T09:20:24.680Z,31.03
2023-06-16T09:23:02.159Z,31.04
2023-06-16T09:25:34.662Z,31.04
2023-06-16T09:28:11.389Z,31.12
2023-06-16T09:30:42.423Z,31.28
2023-06-16T09:33:12.803Z,31.37
2023-06-16T09:35:44.423Z,31.42
2023-06-16T09:38:12.428Z,31.46
2023-06-16T09:40:40.257Z,31.44
2023-06-16T09:43:10.838Z,31.43
2023-06-16T09:45:39.158Z,31.55
2023-06-16T09:48:11.332Z,31.78
2023-06-16T09:50:41.570Z,31.97
2023-06-16T09:53:10.718Z,31.98
2023-06-16T09:55:42.320Z,32.11
2023-06-16T09:58:09.868Z,32.21
2023-06-16T10:00:37.269Z,32.34
2023-06-16T10:03:11.079Z,32.43
2023-06-16T10:05:41.788Z,32.44
2023-06-16T10:08:09.397Z,32.48
2023-06-16T10:10:43.865Z,32.55
2023-06-16T10:13:12.856Z,32.74
2023-06-16T10:15:42.715Z,32.80
2023-06-16T10:18:15.605Z,32.92
2023-06-16T10:20:43.732Z,33.02
2023-06-16T10:23:12.137Z,32.97
2023-06-16T10:25:41.525Z,32.97
2023-06-16T10:28:14.732Z,33.09
2023-06-16T10:30:45.369Z,33.10
2023-06-16T10:33:56.880Z,32.81
2023-06-16T10:36:32.997Z,32.75
2023-06-16T10:39:08.349Z,32.83
2023-06-16T10:41:50.684Z,32.92
2023-06-16T10:44:34.349Z,33.04
2023-06-16T10:47:11.415Z,33.22
2023-06-16T10:49:56.873Z,33.34
2023-06-16T10:52:30.095Z,33.45
2023-06-16T10:55:00.105Z,33.61
2023-06-16T10:57:27.486Z,33.78
2023-06-16T11:00:14.386Z,34.01
2023-06-16T11:02:56.040Z,34.18
2023-06-16T11:05:24.423Z,34.27
2023-06-16T11:08:07.312Z,34.15
2023-06-16T11:11:04.364Z,34.03
2023-06-16T11:13:40.383Z,33.98
2023-06-16T11:16:09.065Z,33.95
2023-06-16T11:18:39.487Z,33.94
2023-06-16T11:21:12.676Z,33.98
2023-06-16T11:23:40.534Z,34.01
2023-06-16T11:26:16.345Z,34.03
2023-06-16T11:28:44.916Z,34.02
2023-06-16T11:31:14.583Z,33.76
2023-06-16T11:33:42.433Z,33.48
2023-06-16T11:36:24.872Z,33.05
2023-06-16T11:38:58.221Z,32.96
2023-06-16T11:41:31.054Z,32.98
2023-06-16T11:43:59.842Z,32.98
2023-06-16T11:46:34.212Z,32.91
2023-06-16T11:49:03.584Z,32.79
2023-06-16T11:51:31.884Z,32.52
2023-06-16T11:54:00.214Z,32.24
2023-06-16T11:56:28.632Z,32.10
2023-06-16T11:58:56.264Z,31.97
2023-06-16T12:01:27.186Z,31.86
2023-06-16T12:04:05.724Z,31.57
2023-06-16T12:06:38.214Z,31.23
2023-06-16T12:09:05.814Z,30.83
2023-06-16T12:11:36.293Z,30.53
2023-06-16T12:14:04.117Z,30.40
2023-06-16T12:16:33.350Z,30.20
2023-06-16T12:19:01.020Z,29.90
2023-06-16T12:21:30.537Z,29.61
2023-06-16T12:24:03.608Z,29.35
2023-06-16T12:26:42.706Z,29.11
2023-06-16T12:29:14.179Z,28.96
2023-06-16T12:32:11.267Z,29.11
2023-06-16T12:34:38.639Z,29.27
2023-06-16T12:37:14.704Z,29.49
2023-06-16T12:39:42.337Z,29.61
2023-06-16T12:42:12.342Z,29.64
2023-06-16T12:44:46.578Z,29.81
2023-06-16T12:47:17.331Z,30.00
2023-06-16T12:49:45.291Z,30.17
2023-06-16T12:52:16.180Z,30.35
2023-06-16T12:54:44.753Z,30.58
2023-06-16T12:57:14.615Z,30.57
2023-06-16T12:59:43.223Z,30.78
2023-06-16T13:02:11.412Z,30.80
2023-06-16T13:04:39.315Z,30.90
2023-06-16T13:07:07.303Z,31.21
2023-06-16T13:09:34.740Z,31.54
2023-06-16T13:12:03.645Z,31.73
2023-06-16T13:14:31.291Z,31.85
2023-06-16T13:16:58.617Z,31.92
2023-06-16T13:19:26.133Z,32.06
2023-06-16T13:21:53.778Z,32.36
2023-06-16T13:24:21.393Z,32.73
2023-06-16T13:26:48.758Z,33.04
2023-06-16T13:29:16.306Z,33.33
2023-06-16T13:31:43.912Z,33.59
2023-06-16T13:34:14.120Z,33.72
2023-06-16T13:36:43.419Z,33.87
2023-06-16T13:39:11.284Z,33.89
2023-06-16T13:41:38.550Z,34.21
2023-06-16T13:44:06.021Z,34.01
2023-06-16T13:46:33.462Z,33.97
2023-06-16T13:49:00.820Z,34.16
2023-06-16T13:51:28.057Z,34.36
2023-06-16T13:53:55.343Z,34.50
2023-06-16T13:56:22.724Z,34.64
2023-06-16T13:58:50.089Z,34.78
2023-06-16T14:01:17.414Z,34.82
2023-06-16T14:03:44.788Z,35.05
2023-06-16T14:06:14.194Z,35.22
2023-06-16T14:08:41.515Z,35.24
2023-06-16T14:11:09.021Z,35.18
2023-06-16T14:13:36.671Z,35.32
2023-06-16T14:16:04.883Z,35.52
2023-06-16T14:18:32.153Z,35.54
2023-06-16T14:20:59.410Z,35.65
2023-06-16T14:23:26.622Z,35.58
2023-06-16T14:25:54.024Z,35.44
2023-06-16T14:28:21.245Z,35.43
2023-06-16T14:30:48.610Z,35.56
2023-06-16T14:33:16.486Z,35.60
2023-06-16T14:35:43.822Z,35.62
2023-06-16T14:38:11.337Z,35.53
2023-06-16T14:40:38.749Z,35.39
2023-06-16T14:43:06.690Z,35.35
2023-06-16T14:45:34.086Z,34.99
2023-06-16T14:48:01.877Z,34.74
2023-06-16T14:50:29.801Z,34.65
2023-06-16T14:52:57.071Z,34.77
2023-06-16T14:55:26.702Z,35.02
2023-06-16T14:57:54.454Z,35.12
2023-06-16T15:00:22.312Z,34.72
2023-06-16T15:02:49.949Z,34.42
2023-06-16T15:05:18.839Z,33.76
2023-06-16T15:07:46.431Z,32.83
2023-06-16T15:10:13.764Z,32.20
2023-06-16T15:12:41.090Z,31.55
2023-06-16T15:15:09.848Z,31.14
2023-06-16T15:17:37.188Z,31.63
2023-06-16T15:20:06.969Z,31.97
2023-06-16T15:22:34.414Z,31.60
2023-06-16T15:25:01.723Z,31.19
2023-06-16T15:27:29.016Z,30.91
2023-06-16T15:29:56.272Z,31.30
2023-06-16T15:32:23.577Z,31.62
2023-06-16T15:34:51.008Z,31.95
2023-06-16T15:37:18.335Z,31.30
2023-06-16T15:39:45.792Z,30.91
2023-06-16T15:42:13.158Z,30.83
2023-06-16T15:44:41.498Z,30.99
2023-06-16T15:47:08.940Z,30.87
2023-06-16T15:49:36.807Z,30.77
2023-06-16T15:52:04.740Z,30.77
2023-06-16T15:54:32.054Z,30.61
2023-06-16T15:57:01.035Z,30.37
2023-06-16T15:59:28.303Z,30.08
2023-06-16T16:01:56.914Z,29.89
2023-06-16T16:04:24.586Z,29.71
2023-06-16T16:06:51.932Z,29.49
2023-06-16T16:09:19.248Z,29.33
2023-06-16T16:11:46.629Z,29.29
2023-06-16T16:14:14.070Z,29.25
2023-06-16T16:16:41.413Z,29.17
2023-06-16T16:19:08.723Z,29.12
2023-06-16T16:21:36.038Z,29.09
2023-06-16T16:24:03.656Z,28.98
2023-06-16T16:26:30.924Z,28.89
2023-06-16T16:28:59.131Z,28.89
2023-06-16T16:31:26.435Z,28.84
2023-06-16T16:33:54.060Z,28.77
2023-06-16T16:36:21.324Z,28.68
2023-06-16T16:38:48.822Z,28.55
2023-06-16T16:41:16.435Z,28.42
2023-06-16T16:43:44.168Z,28.38
2023-06-16T16:46:11.594Z,28.36
2023-06-16T16:48:39.207Z,28.40
2023-06-16T16:51:06.641Z,28.43
2023-06-16T16:53:34.106Z,28.48
2023-06-16T16:56:01.501Z,28.43
2023-06-16T16:58:28.787Z,28.42
2023-06-16T17:00:56.067Z,28.49
2023-06-16T17:03:23.457Z,28.40
2023-06-16T17:05:51.493Z,28.30
2023-06-16T17:08:19.127Z,28.26
2023-06-16T17:10:46.543Z,28.14
2023-06-16T17:13:13.951Z,27.97
2023-06-16T17:15:42.485Z,27.78
2023-06-16T17:18:09.921Z,27.66
2023-06-16T17:20:37.193Z,27.51
2023-06-16T17:23:05.854Z,27.38
2023-06-16T17:25:33.763Z,27.28
2023-06-16T17:28:01.260Z,27.17
2023-06-16T17:30:29.266Z,27.08
2023-06-16T17:33:00.008Z,26.98
2023-06-16T17:35:31.189Z,26.97
2023-06-16T17:37:59.942Z,26.92
2023-06-16T17:40:35.228Z,26.79
2023-06-16T17:43:04.989Z,26.70
2023-06-16T17:45:36.386Z,26.53
2023-06-16T17:48:03.953Z,26.33
2023-06-16T17:50:31.355Z,26.19
2023-06-16T17:52:59.921Z,26.06
2023-06-16T17:55:27.672Z,25.93
2023-06-16T17:57:55.001Z,25.84
2023-06-16T18:00:22.849Z,25.75
2023-06-16T18:02:50.674Z,25.69
2023-06-16T18:05:19.643Z,25.57
2023-06-16T18:07:48.064Z,25.52
2023-06-16T18:10:15.684Z,25.47
2023-06-16T18:12:43.061Z,25.32
2023-06-16T18:15:11.627Z,25.22
2023-06-16T18:17:38.997Z,25.09
2023-06-16T18:20:07.195Z,24.96
2023-06-16T18:22:34.506Z,24.89
2023-06-16T18:25:02.102Z,24.87
2023-06-16T18:27:29.418Z,24.81
2023-06-16T18:29:56.918Z,24.72
2023-06-16T18:32:24.287Z,24.60
2023-06-16T18:34:51.643Z,24.55
2023-06-16T18:37:18.936Z,24.52
2023-06-16T18:39:46.255Z,24.48
2023-06-16T18:42:13.554Z,24.41
2023-06-16T18:44:40.895Z,24.36
2023-06-16T18:47:10.262Z,24.33
2023-06-16T18:49:37.734Z,24.27
2023-06-16T18:52:05.654Z,24.24
2023-06-16T18:54:32.958Z,24.16
2023-06-16T18:57:00.553Z,24.08
2023-06-16T18:59:29.631Z,24.02
2023-06-16T19:01:57.708Z,23.93
2023-06-16T19:04:25.188Z,23.85
2023-06-16T19:06:52.559Z,23.79
2023-06-16T19:09:19.843Z,23.71
2023-06-16T19:11:47.323Z,23.65
2023-06-16T19:14:14.623Z,23.56
2023-06-16T19:16:41.997Z,23.51
2023-06-16T19:19:09.319Z,23.44
2023-06-16T19:21:36.597Z,23.36
2023-06-16T19:24:04.422Z,23.26
2023-06-16T19:26:31.720Z,23.17
2023-06-16T19:28:59.081Z,23.10
2023-06-16T19:31:30.448Z,23.03
2023-06-16T19:33:59.395Z,22.95
2023-06-16T19:36:26.845Z,22.88
2023-06-16T19:38:54.664Z,22.81
2023-06-16T19:41:25.456Z,22.72
2023-06-16T19:43:52.889Z,22.67
2023-06-16T19:46:20.382Z,22.56
2023-06-16T19:48:47.697Z,22.50
2023-06-16T19:51:15.131Z,22.42
2023-06-16T19:53:42.458Z,22.32
2023-06-16T19:56:09.767Z,22.24
2023-06-16T19:58:37.044Z,22.16
2023-06-16T20:01:04.459Z,22.08
2023-06-16T20:03:32.033Z,22.03
2023-06-16T20:05:59.335Z,21.93
2023-06-16T20:08:26.622Z,21.89
2023-06-16T20:10:54.859Z,21.82
2023-06-16T20:13:22.485Z,21.78
2023-06-16T20:15:49.982Z,21.76
2023-06-16T20:18:17.248Z,21.70
2023-06-16T20:20:50.050Z,21.64
2023-06-16T20:23:18.712Z,21.60
2023-06-16T20:25:46.243Z,21.52
2023-06-16T20:28:13.787Z,21.49
2023-06-16T20:30:44.883Z,21.44
2023-06-16T20:33:12.519Z,21.39
2023-06-16T20:35:40.006Z,21.37
2023-06-16T20:38:07.317Z,21.31
2023-06-16T20:40:34.857Z,21.23
2023-06-16T20:43:03.986Z,21.14
2023-06-16T20:45:32.718Z,21.08
2023-06-16T20:48:00.177Z,21.02
2023-06-16T20:50:28.473Z,20.96
2023-06-16T20:52:56.118Z,20.90
2023-06-16T20:55:24.831Z,20.85
2023-06-16T20:57:56.240Z,20.80
2023-06-16T21:00:28.765Z,20.73
2023-06-16T21:02:56.667Z,20.69
2023-06-16T21:05:24.411Z,20.65
2023-06-16T21:07:53.759Z,20.66
2023-06-16T21:10:21.308Z,20.61
2023-06-16T21:12:49.056Z,20.60
2023-06-16T21:15:20.741Z,20.58
2023-06-16T21:17:50.118Z,20.55
2023-06-16T21:20:19.568Z,20.51
2023-06-16T21:22:51.918Z,20.47
2023-06-16T21:25:19.774Z,20.45
2023-06-16T21:27:47.484Z,20.41
2023-06-16T21:30:15.067Z,20.36
2023-06-16T21:32:42.399Z,20.31
2023-06-16T21:35:11.557Z,20.27
2023-06-16T21:37:39.285Z,20.20
2023-06-16T21:40:08.393Z,20.13
2023-06-16T21:42:43.321Z,20.05
2023-06-16T21:45:14.679Z,19.98
2023-06-16T21:47:42.599Z,19.90
2023-06-16T21:50:10.612Z,19.84
2023-06-16T21:52:38.305Z,19.76
2023-06-16T21:55:07.024Z,19.70
2023-06-16T21:57:36.331Z,19.65
2023-06-16T22:00:09.908Z,19.59
2023-06-16T22:02:37.626Z,19.54
2023-06-16T22:05:08.453Z,19.48
2023-06-16T22:07:43.175Z,19.44
2023-06-16T22:10:12.251Z,19.39
2023-06-16T22:12:39.640Z,19.33
2023-06-16T22:15:08.762Z,19.28
2023-06-16T22:17:36.717Z,19.24
2023-06-16T22:20:09.366Z,19.20
2023-06-16T22:22:36.615Z,19.15
2023-06-16T22:25:04.660Z,19.12
2023-06-16T22:27:33.150Z,19.08
2023-06-16T22:30:00.671Z,19.02
2023-06-16T22:32:29.290Z,18.94
2023-06-16T22:34:56.670Z,18.93
2023-06-16T22:37:23.909Z,18.91
2023-06-16T22:39:52.193Z,18.88
2023-06-16T22:42:19.629Z,18.88
2023-06-16T22:44:46.886Z,18.83
2023-06-16T22:47:14.174Z,18.81
2023-06-16T22:49:41.472Z,18.80
2023-06-16T22:52:09.417Z,18.83
2023-06-16T22:54:37.463Z,18.84
2023-06-16T22:57:06.410Z,18.80
2023-06-16T22:59:33.970Z,18.77
2023-06-16T23:02:01.685Z,18.78
2023-06-16T23:04:29.196Z,18.74
2023-06-16T23:06:56.691Z,18.71
2023-06-16T23:09:24.080Z,18.72
2023-06-16T23:11:51.394Z,18.71
2023-06-16T23:14:19.802Z,18.67
2023-06-16T23:16:47.835Z,18.61
2023-06-16T23:19:16.147Z,18.53
2023-06-16T23:21:44.228Z,18.43
2023-06-16T23:24:12.171Z,18.36
2023-06-16T23:26:47.046Z,18.27
2023-06-16T23:29:17.282Z,18.19
2023-06-16T23:31:46.410Z,18.18
2023-06-16T23:34:15.457Z,18.15
2023-06-16T23:36:42.853Z,18.08
2023-06-16T23:39:11.696Z,18.05
2023-06-16T23:41:39.190Z,17.99
2023-06-16T23:44:06.456Z,17.93
2023-06-16T23:46:33.870Z,17.90
2023-06-16T23:49:01.674Z,17.87
2023-06-16T23:51:29.230Z,17.82
2023-06-16T23:53:56.959Z,17.80
2023-06-16T23:56:24.325Z,17.77
2023-06-16T23:58:53.481Z,17.74
